sensor_id;sensor_type;location;lat;lon;timestamp;temperature;humidity
2825;DHT22;1420;51.324;12.344;2023-02-28T00:00:12;0.90;99.90
2825;DHT22;1420;51.324;12.344;2023-02-28T00:02:41;0.90;99.90
2825;DHT22;1420;51.324;12.344;2023-02-28T00:05:08;0.80;99.90
2825;DHT22;1420;51.324;12.344;2023-02-28T00:07:35;0.80;99.90
2825;DHT22;1420;51.324;12.344;2023-02-28T00:10:04;0.90;99.90
2825;DHT22;1420;51.324;12.344;2023-02-28T00:12:31;0.80;99.90
2825;DHT22;1420;51.324;12.344;2023-02-28T00:14:58;0.70;99.90
2825;DHT22;1420;51.324;12.344;2023-02-28T00:17:25;0.60;99.90
2825;DHT22;1420;51.324;12.344;2023-02-28T00:19:52;0.60;99.90
2825;DHT22;1420;51.324;12.344;2023-02-28T00:22:20;0.60;99.90
2825;DHT22;1420;51.324;12.344;2023-02-28T00:24:48;0.80;99.90
2825;DHT22;1420;51.324;12.344;2023-02-28T00:27:15;0.70;99.90
2825;DHT22;1420;51.324;12.344;2023-02-28T00:29:42;0.70;99.90
2825;DHT22;1420;51.324;12.344;2023-02-28T00:32:09;0.80;99.90
2825;DHT22;1420;51.324;12.344;2023-02-28T00:34:37;0.80;99.90
2825;DHT22;1420;51.324;12.344;2023-02-28T00:37:05;0.80;99.90
2825;DHT22;1420;51.324;12.344;2023-02-28T00:39:35;0.70;99.90
2825;DHT22;1420;51.324;12.344;2023-02-28T00:42:02;0.70;99.90
2825;DHT22;1420;51.324;12.344;2023-02-28T00:44:29;0.70;99.90
2825;DHT22;1420;51.324;12.344;2023-02-28T00:46:57;0.80;99.90
2825;DHT22;1420;51.324;12.344;2023-02-28T00:49:24;0.60;99.90
2825;DHT22;1420;51.324;12.344;2023-02-28T00:51:52;0.60;99.90
2825;DHT22;1420;51.324;12.344;2023-02-28T00:54:20;0.60;99.90
2825;DHT22;1420;51.324;12.344;2023-02-28T00:56:47;0.60;99.90
2825;DHT22;1420;51.324;12.344;2023-02-28T00:59:15;0.80;99.90
2825;DHT22;1420;51.324;12.344;2023-02-28T01:01:42;0.60;99.90
2825;DHT22;1420;51.324;12.344;2023-02-28T01:04:08;0.60;99.90
2825;DHT22;1420;51.324;12.344;2023-02-28T01:06:36;0.60;99.90
2825;DHT22;1420;51.324;12.344;2023-02-28T01:09:04;0.70;99.90
2825;DHT22;1420;51.324;12.344;2023-02-28T01:11:32;0.70;99.90
2825;DHT22;1420;51.324;12.344;2023-02-28T01:13:59;0.60;99.90
2825;DHT22;1420;51.324;12.344;2023-02-28T01:16:26;0.70;99.90
2825;DHT22;1420;51.324;12.344;2023-02-28T01:18:53;0.70;99.90
2825;DHT22;1420;51.324;12.344;2023-02-28T01:21:21;0.80;99.90
2825;DHT22;1420;51.324;12.344;2023-02-28T01:23:48;0.70;99.90
2825;DHT22;1420;51.324;12.344;2023-02-28T01:26:17;0.70;99.90
2825;DHT22;1420;51.324;12.344;2023-02-28T01:28:43;0.70;99.90
2825;DHT22;1420;51.324;12.344;2023-02-28T01:31:10;0.70;99.90
2825;DHT22;1420;51.324;12.344;2023-02-28T01:33:38;0.70;99.90
2825;DHT22;1420;51.324;12.344;2023-02-28T01:36:07;0.70;99.90
2825;DHT22;1420;51.324;12.344;2023-02-28T01:38:33;0.60;99.90
2825;DHT22;1420;51.324;12.344;2023-02-28T01:41:01;0.70;99.90
2825;DHT22;1420;51.324;12.344;2023-02-28T01:43:31;0.60;99.90
2825;DHT22;1420;51.324;12.344;2023-02-28T01:45:58;0.50;99.90
2825;DHT22;1420;51.324;12.344;2023-02-28T01:48:27;0.70;99.90
2825;DHT22;1420;51.324;12.344;2023-02-28T01:50:54;0.60;99.90
2825;DHT22;1420;51.324;12.344;2023-02-28T01:53:22;0.50;99.90
2825;DHT22;1420;51.324;12.344;2023-02-28T01:55:48;0.60;99.90
2825;DHT22;1420;51.324;12.344;2023-02-28T01:58:15;0.50;99.90
2825;DHT22;1420;51.324;12.344;2023-02-28T02:00:43;0.60;99.90
2825;DHT22;1420;51.324;12.344;2023-02-28T02:03:12;0.50;99.90
2825;DHT22;1420;51.324;12.344;2023-02-28T02:05:38;0.50;99.90
2825;DHT22;1420;51.324;12.344;2023-02-28T02:08:06;0.50;99.90
2825;DHT22;1420;51.324;12.344;2023-02-28T02:10:34;0.50;99.90
2825;DHT22;1420;51.324;12.344;2023-02-28T02:15:51;0.50;99.90
2825;DHT22;1420;51.324;12.344;2023-02-28T02:18:40;0.50;99.90
2825;DHT22;1420;51.324;12.344;2023-02-28T02:27:04;0.50;99.90
2825;DHT22;1420;51.324;12.344;2023-02-28T02:30:09;0.60;99.90
2825;DHT22;1420;51.324;12.344;2023-02-28T02:32:21;0.50;99.90
2825;DHT22;1420;51.324;12.344;2023-02-28T02:35:10;0.40;99.90
2825;DHT22;1420;51.324;12.344;2023-02-28T02:37:39;0.40;99.90
2825;DHT22;1420;51.324;12.344;2023-02-28T02:40:16;0.40;99.90
2825;DHT22;1420;51.324;12.344;2023-02-28T02:42:49;0.60;99.90
2825;DHT22;1420;51.324;12.344;2023-02-28T02:45:35;0.50;99.90
2825;DHT22;1420;51.324;12.344;2023-02-28T02:48:02;0.50;99.90
2825;DHT22;1420;51.324;12.344;2023-02-28T02:50:31;0.50;99.90
2825;DHT22;1420;51.324;12.344;2023-02-28T02:52:57;0.50;99.90
2825;DHT22;1420;51.324;12.344;2023-02-28T02:55:23;0.50;99.90
2825;DHT22;1420;51.324;12.344;2023-02-28T02:57:54;0.30;99.90
2825;DHT22;1420;51.324;12.344;2023-02-28T03:00:23;0.30;99.90
2825;DHT22;1420;51.324;12.344;2023-02-28T03:02:48;0.30;99.90
2825;DHT22;1420;51.324;12.344;2023-02-28T03:05:19;0.20;99.90
2825;DHT22;1420;51.324;12.344;2023-02-28T03:07:44;0.20;99.90
2825;DHT22;1420;51.324;12.344;2023-02-28T03:12:52;0.10;99.90
2825;DHT22;1420;51.324;12.344;2023-02-28T03:15:21;0.20;99.90
2825;DHT22;1420;51.324;12.344;2023-02-28T03:17:49;0.10;99.90
2825;DHT22;1420;51.324;12.344;2023-02-28T03:20:31;0.20;99.90
2825;DHT22;1420;51.324;12.344;2023-02-28T03:23:03;0.10;99.90
2825;DHT22;1420;51.324;12.344;2023-02-28T03:25:47;0.10;99.90
2825;DHT22;1420;51.324;12.344;2023-02-28T03:28:32;0.10;99.90
2825;DHT22;1420;51.324;12.344;2023-02-28T03:31:00;0.10;99.90
2825;DHT22;1420;51.324;12.344;2023-02-28T03:33:29;0.10;99.90
2825;DHT22;1420;51.324;12.344;2023-02-28T03:35:58;0.10;99.90
2825;DHT22;1420;51.324;12.344;2023-02-28T03:38:43;0.10;99.90
2825;DHT22;1420;51.324;12.344;2023-02-28T03:41:14;0.10;99.90
2825;DHT22;1420;51.324;12.344;2023-02-28T03:43:40;0.10;99.90
2825;DHT22;1420;51.324;12.344;2023-02-28T03:46:08;0.00;99.90
2825;DHT22;1420;51.324;12.344;2023-02-28T03:48:38;0.10;99.90
2825;DHT22;1420;51.324;12.344;2023-02-28T03:51:02;0.10;99.90
2825;DHT22;1420;51.324;12.344;2023-02-28T03:53:31;0.10;99.90
2825;DHT22;1420;51.324;12.344;2023-02-28T03:56:19;0.00;99.90
2825;DHT22;1420;51.324;12.344;2023-02-28T03:58:51;0.00;99.90
2825;DHT22;1420;51.324;12.344;2023-02-28T04:01:23;0.10;99.90
2825;DHT22;1420;51.324;12.344;2023-02-28T04:03:49;0.00;99.90
2825;DHT22;1420;51.324;12.344;2023-02-28T04:06:17;-0.10;99.90
2825;DHT22;1420;51.324;12.344;2023-02-28T04:08:43;-0.10;99.90
2825;DHT22;1420;51.324;12.344;2023-02-28T04:11:21;0.00;99.90
2825;DHT22;1420;51.324;12.344;2023-02-28T04:13:49;0.00;99.90
2825;DHT22;1420;51.324;12.344;2023-02-28T04:16:17;0.00;99.90
2825;DHT22;1420;51.324;12.344;2023-02-28T04:18:45;0.00;99.90
2825;DHT22;1420;51.324;12.344;2023-02-28T04:21:12;-0.10;99.90
2825;DHT22;1420;51.324;12.344;2023-02-28T04:23:39;0.00;99.90
2825;DHT22;1420;51.324;12.344;2023-02-28T04:26:06;0.00;99.90
2825;DHT22;1420;51.324;12.344;2023-02-28T04:28:33;0.10;99.90
2825;DHT22;1420;51.324;12.344;2023-02-28T04:31:02;0.00;99.90
2825;DHT22;1420;51.324;12.344;2023-02-28T04:33:29;0.10;99.90
2825;DHT22;1420;51.324;12.344;2023-02-28T04:36:06;0.30;99.90
2825;DHT22;1420;51.324;12.344;2023-02-28T04:38:35;0.10;99.90
2825;DHT22;1420;51.324;12.344;2023-02-28T04:41:02;0.20;99.90
2825;DHT22;1420;51.324;12.344;2023-02-28T04:43:30;0.20;99.90
2825;DHT22;1420;51.324;12.344;2023-02-28T04:45:57;0.20;99.90
2825;DHT22;1420;51.324;12.344;2023-02-28T04:48:24;0.10;99.90
2825;DHT22;1420;51.324;12.344;2023-02-28T04:50:51;0.10;99.90
2825;DHT22;1420;51.324;12.344;2023-02-28T04:53:19;0.10;99.90
2825;DHT22;1420;51.324;12.344;2023-02-28T04:55:46;0.00;99.90
2825;DHT22;1420;51.324;12.344;2023-02-28T04:58:13;0.00;99.90
2825;DHT22;1420;51.324;12.344;2023-02-28T05:00:41;0.10;99.90
2825;DHT22;1420;51.324;12.344;2023-02-28T05:03:08;0.00;99.90
2825;DHT22;1420;51.324;12.344;2023-02-28T05:05:36;0.00;99.90
2825;DHT22;1420;51.324;12.344;2023-02-28T05:08:04;0.00;99.90
2825;DHT22;1420;51.324;12.344;2023-02-28T05:10:31;0.00;99.90
2825;DHT22;1420;51.324;12.344;2023-02-28T05:12:59;0.00;99.90
2825;DHT22;1420;51.324;12.344;2023-02-28T05:15:27;0.00;99.90
2825;DHT22;1420;51.324;12.344;2023-02-28T05:17:54;0.00;99.90
2825;DHT22;1420;51.324;12.344;2023-02-28T05:20:21;0.10;99.90
2825;DHT22;1420;51.324;12.344;2023-02-28T05:22:49;0.10;99.90
2825;DHT22;1420;51.324;12.344;2023-02-28T05:25:17;0.10;99.90
2825;DHT22;1420;51.324;12.344;2023-02-28T05:27:45;-0.10;99.90
2825;DHT22;1420;51.324;12.344;2023-02-28T05:30:12;-0.20;99.90
2825;DHT22;1420;51.324;12.344;2023-02-28T05:32:39;0.00;99.90
2825;DHT22;1420;51.324;12.344;2023-02-28T05:35:06;0.00;99.90
2825;DHT22;1420;51.324;12.344;2023-02-28T05:37:34;0.20;99.90
2825;DHT22;1420;51.324;12.344;2023-02-28T05:40:03;0.10;99.90
2825;DHT22;1420;51.324;12.344;2023-02-28T05:42:31;0.10;99.90
2825;DHT22;1420;51.324;12.344;2023-02-28T05:44:59;0.00;99.90
2825;DHT22;1420;51.324;12.344;2023-02-28T05:47:27;0.00;99.90
2825;DHT22;1420;51.324;12.344;2023-02-28T05:49:54;0.10;99.90
2825;DHT22;1420;51.324;12.344;2023-02-28T05:52:21;0.00;99.90
2825;DHT22;1420;51.324;12.344;2023-02-28T05:54:49;0.00;99.90
2825;DHT22;1420;51.324;12.344;2023-02-28T05:57:16;0.00;99.90
2825;DHT22;1420;51.324;12.344;2023-02-28T05:59:43;0.10;99.90
2825;DHT22;1420;51.324;12.344;2023-02-28T06:02:13;0.40;99.90
2825;DHT22;1420;51.324;12.344;2023-02-28T06:04:39;0.70;99.90
2825;DHT22;1420;51.324;12.344;2023-02-28T06:07:06;0.80;99.90
2825;DHT22;1420;51.324;12.344;2023-02-28T06:09:34;1.50;99.90
2825;DHT22;1420;51.324;12.344;2023-02-28T06:12:03;1.00;99.90
2825;DHT22;1420;51.324;12.344;2023-02-28T06:14:30;0.90;99.90
2825;DHT22;1420;51.324;12.344;2023-02-28T06:16:58;1.00;99.90
2825;DHT22;1420;51.324;12.344;2023-02-28T06:19:25;1.10;99.90
2825;DHT22;1420;51.324;12.344;2023-02-28T06:21:52;0.90;99.90
2825;DHT22;1420;51.324;12.344;2023-02-28T06:24:21;0.30;99.90
2825;DHT22;1420;51.324;12.344;2023-02-28T06:26:48;0.20;99.90
2825;DHT22;1420;51.324;12.344;2023-02-28T06:29:15;0.30;99.90
2825;DHT22;1420;51.324;12.344;2023-02-28T06:31:45;0.00;99.90
2825;DHT22;1420;51.324;12.344;2023-02-28T06:34:13;0.00;99.90
2825;DHT22;1420;51.324;12.344;2023-02-28T06:36:41;0.10;99.90
2825;DHT22;1420;51.324;12.344;2023-02-28T06:39:08;0.10;99.90
2825;DHT22;1420;51.324;12.344;2023-02-28T06:41:35;0.10;99.90
2825;DHT22;1420;51.324;12.344;2023-02-28T06:44:02;0.10;99.90
2825;DHT22;1420;51.324;12.344;2023-02-28T06:46:29;0.10;99.90
2825;DHT22;1420;51.324;12.344;2023-02-28T06:48:56;0.10;99.90
2825;DHT22;1420;51.324;12.344;2023-02-28T06:51:24;0.20;99.90
2825;DHT22;1420;51.324;12.344;2023-02-28T06:53:52;0.70;99.90
2825;DHT22;1420;51.324;12.344;2023-02-28T06:56:19;0.70;99.90
2825;DHT22;1420;51.324;12.344;2023-02-28T06:58:48;1.10;99.90
2825;DHT22;1420;51.324;12.344;2023-02-28T07:01:14;1.60;99.90
2825;DHT22;1420;51.324;12.344;2023-02-28T07:03:42;2.60;99.90
2825;DHT22;1420;51.324;12.344;2023-02-28T07:06:10;2.70;99.90
2825;DHT22;1420;51.324;12.344;2023-02-28T07:08:38;2.90;99.90
2825;DHT22;1420;51.324;12.344;2023-02-28T07:11:05;2.80;99.90
2825;DHT22;1420;51.324;12.344;2023-02-28T07:13:32;3.00;99.90
2825;DHT22;1420;51.324;12.344;2023-02-28T07:16:01;3.60;98.50
2825;DHT22;1420;51.324;12.344;2023-02-28T07:18:27;3.70;96.90
2825;DHT22;1420;51.324;12.344;2023-02-28T07:20:54;4.00;95.80
2825;DHT22;1420;51.324;12.344;2023-02-28T07:23:22;4.20;92.60
2825;DHT22;1420;51.324;12.344;2023-02-28T07:25:50;4.20;92.60
2825;DHT22;1420;51.324;12.344;2023-02-28T07:28:17;3.70;92.60
2825;DHT22;1420;51.324;12.344;2023-02-28T07:30:44;3.90;90.90
2825;DHT22;1420;51.324;12.344;2023-02-28T07:33:11;4.20;91.80
2825;DHT22;1420;51.324;12.344;2023-02-28T07:35:38;4.20;91.80
2825;DHT22;1420;51.324;12.344;2023-02-28T07:38:06;4.40;88.60
2825;DHT22;1420;51.324;12.344;2023-02-28T07:40:34;4.30;88.40
2825;DHT22;1420;51.324;12.344;2023-02-28T07:43:01;4.50;87.30
2825;DHT22;1420;51.324;12.344;2023-02-28T07:45:28;4.80;87.30
2825;DHT22;1420;51.324;12.344;2023-02-28T07:47:56;4.30;83.60
2825;DHT22;1420;51.324;12.344;2023-02-28T07:50:23;4.70;90.40
2825;DHT22;1420;51.324;12.344;2023-02-28T07:52:51;4.70;85.10
2825;DHT22;1420;51.324;12.344;2023-02-28T07:55:19;4.60;84.80
2825;DHT22;1420;51.324;12.344;2023-02-28T07:57:46;4.50;82.00
2825;DHT22;1420;51.324;12.344;2023-02-28T08:00:13;4.40;81.10
2825;DHT22;1420;51.324;12.344;2023-02-28T08:02:41;4.50;82.90
2825;DHT22;1420;51.324;12.344;2023-02-28T08:05:08;5.10;80.00
2825;DHT22;1420;51.324;12.344;2023-02-28T08:07:35;5.10;75.00
2825;DHT22;1420;51.324;12.344;2023-02-28T08:10:03;4.40;78.20
2825;DHT22;1420;51.324;12.344;2023-02-28T08:12:31;4.90;75.60
2825;DHT22;1420;51.324;12.344;2023-02-28T08:14:59;4.80;75.40
2825;DHT22;1420;51.324;12.344;2023-02-28T08:17:26;4.80;72.50
2825;DHT22;1420;51.324;12.344;2023-02-28T08:19:53;4.50;73.00
2825;DHT22;1420;51.324;12.344;2023-02-28T08:22:20;5.10;71.80
2825;DHT22;1420;51.324;12.344;2023-02-28T08:24:47;5.20;70.30
2825;DHT22;1420;51.324;12.344;2023-02-28T08:27:15;5.40;68.20
2825;DHT22;1420;51.324;12.344;2023-02-28T08:29:43;5.30;68.10
2825;DHT22;1420;51.324;12.344;2023-02-28T08:32:10;5.30;67.80
2825;DHT22;1420;51.324;12.344;2023-02-28T08:34:38;4.90;67.50
2825;DHT22;1420;51.324;12.344;2023-02-28T08:37:04;5.20;66.50
2825;DHT22;1420;51.324;12.344;2023-02-28T08:39:34;5.10;65.90
2825;DHT22;1420;51.324;12.344;2023-02-28T08:41:59;5.10;66.50
2825;DHT22;1420;51.324;12.344;2023-02-28T08:44:26;5.40;68.40
2825;DHT22;1420;51.324;12.344;2023-02-28T08:46:53;5.90;63.30
2825;DHT22;1420;51.324;12.344;2023-02-28T08:49:21;5.80;59.40
2825;DHT22;1420;51.324;12.344;2023-02-28T08:51:48;5.70;59.30
2825;DHT22;1420;51.324;12.344;2023-02-28T08:54:16;5.70;58.40
2825;DHT22;1420;51.324;12.344;2023-02-28T08:56:43;5.20;58.00
2825;DHT22;1420;51.324;12.344;2023-02-28T08:59:11;5.70;59.00
2825;DHT22;1420;51.324;12.344;2023-02-28T09:01:38;5.70;58.40
2825;DHT22;1420;51.324;12.344;2023-02-28T09:04:05;5.60;58.80
2825;DHT22;1420;51.324;12.344;2023-02-28T09:06:32;6.00;58.10
2825;DHT22;1420;51.324;12.344;2023-02-28T09:09:00;5.90;56.60
2825;DHT22;1420;51.324;12.344;2023-02-28T09:11:28;5.50;56.90
2825;DHT22;1420;51.324;12.344;2023-02-28T09:13:56;5.40;56.90
2825;DHT22;1420;51.324;12.344;2023-02-28T09:16:23;5.10;58.90
2825;DHT22;1420;51.324;12.344;2023-02-28T09:18:50;5.50;56.20
2825;DHT22;1420;51.324;12.344;2023-02-28T09:21:18;5.40;56.20
2825;DHT22;1420;51.324;12.344;2023-02-28T09:23:47;5.00;57.00
2825;DHT22;1420;51.324;12.344;2023-02-28T09:26:16;5.20;57.00
2825;DHT22;1420;51.324;12.344;2023-02-28T09:28:43;5.10;56.90
2825;DHT22;1420;51.324;12.344;2023-02-28T09:31:12;5.50;57.60
2825;DHT22;1420;51.324;12.344;2023-02-28T09:33:38;6.20;56.30
2825;DHT22;1420;51.324;12.344;2023-02-28T09:36:06;6.20;56.30
2825;DHT22;1420;51.324;12.344;2023-02-28T09:38:33;6.60;54.60
2825;DHT22;1420;51.324;12.344;2023-02-28T09:41:01;6.40;54.40
2825;DHT22;1420;51.324;12.344;2023-02-28T09:43:29;6.10;53.50
2825;DHT22;1420;51.324;12.344;2023-02-28T09:46:02;6.20;53.10
2825;DHT22;1420;51.324;12.344;2023-02-28T09:48:31;5.80;55.00
2825;DHT22;1420;51.324;12.344;2023-02-28T09:51:00;5.90;53.90
2825;DHT22;1420;51.324;12.344;2023-02-28T09:53:29;6.20;52.60
2825;DHT22;1420;51.324;12.344;2023-02-28T09:55:58;5.60;54.30
2825;DHT22;1420;51.324;12.344;2023-02-28T09:58:28;5.50;53.60
2825;DHT22;1420;51.324;12.344;2023-02-28T10:00:57;4.70;54.30
2825;DHT22;1420;51.324;12.344;2023-02-28T10:03:25;4.10;54.60
2825;DHT22;1420;51.324;12.344;2023-02-28T10:06:08;4.90;53.50
2825;DHT22;1420;51.324;12.344;2023-02-28T10:08:37;5.00;53.70
2825;DHT22;1420;51.324;12.344;2023-02-28T10:11:06;5.60;53.40
2825;DHT22;1420;51.324;12.344;2023-02-28T10:13:36;6.50;53.00
2825;DHT22;1420;51.324;12.344;2023-02-28T10:16:06;6.40;52.90
2825;DHT22;1420;51.324;12.344;2023-02-28T10:18:46;6.70;52.00
2825;DHT22;1420;51.324;12.344;2023-02-28T10:21:03;5.80;51.10
2825;DHT22;1420;51.324;12.344;2023-02-28T10:23:37;5.70;50.80
2825;DHT22;1420;51.324;12.344;2023-02-28T10:26:09;5.20;51.80
2825;DHT22;1420;51.324;12.344;2023-02-28T10:28:33;4.90;51.50
2825;DHT22;1420;51.324;12.344;2023-02-28T10:31:00;4.40;53.70
2825;DHT22;1420;51.324;12.344;2023-02-28T10:33:34;4.60;53.80
2825;DHT22;1420;51.324;12.344;2023-02-28T10:36:02;4.70;52.90
2825;DHT22;1420;51.324;12.344;2023-02-28T10:38:34;5.00;53.40
2825;DHT22;1420;51.324;12.344;2023-02-28T10:41:08;5.00;53.20
2825;DHT22;1420;51.324;12.344;2023-02-28T10:43:35;4.90;52.20
2825;DHT22;1420;51.324;12.344;2023-02-28T10:46:23;5.20;54.50
2825;DHT22;1420;51.324;12.344;2023-02-28T10:49:02;5.10;53.90
2825;DHT22;1420;51.324;12.344;2023-02-28T10:51:33;4.60;54.60
2825;DHT22;1420;51.324;12.344;2023-02-28T10:53:56;4.80;54.50
2825;DHT22;1420;51.324;12.344;2023-02-28T10:56:25;4.50;54.10
2825;DHT22;1420;51.324;12.344;2023-02-28T11:01:50;4.30;55.50
2825;DHT22;1420;51.324;12.344;2023-02-28T11:09:38;4.80;56.90
2825;DHT22;1420;51.324;12.344;2023-02-28T11:12:07;4.80;55.20
2825;DHT22;1420;51.324;12.344;2023-02-28T11:14:36;4.90;55.50
2825;DHT22;1420;51.324;12.344;2023-02-28T11:17:34;5.00;55.10
2825;DHT22;1420;51.324;12.344;2023-02-28T11:19:46;4.80;55.60
2825;DHT22;1420;51.324;12.344;2023-02-28T11:22:15;4.90;55.90
2825;DHT22;1420;51.324;12.344;2023-02-28T11:24:41;4.70;55.50
2825;DHT22;1420;51.324;12.344;2023-02-28T11:27:24;4.60;55.20
2825;DHT22;1420;51.324;12.344;2023-02-28T11:29:34;4.60;56.50
2825;DHT22;1420;51.324;12.344;2023-02-28T11:32:21;4.60;56.00
2825;DHT22;1420;51.324;12.344;2023-02-28T11:34:59;4.50;55.80
2825;DHT22;1420;51.324;12.344;2023-02-28T11:37:17;4.40;56.20
2825;DHT22;1420;51.324;12.344;2023-02-28T11:39:43;4.40;56.20
2825;DHT22;1420;51.324;12.344;2023-02-28T11:45:07;4.40;56.60
2825;DHT22;1420;51.324;12.344;2023-02-28T11:47:47;4.40;56.70
2825;DHT22;1420;51.324;12.344;2023-02-28T11:53:00;4.30;56.50
2825;DHT22;1420;51.324;12.344;2023-02-28T11:55:32;4.10;58.00
2825;DHT22;1420;51.324;12.344;2023-02-28T11:58:14;4.30;57.30
2825;DHT22;1420;51.324;12.344;2023-02-28T12:05:53;4.30;58.00
2825;DHT22;1420;51.324;12.344;2023-02-28T12:08:42;4.50;60.20
2825;DHT22;1420;51.324;12.344;2023-02-28T12:11:13;4.50;59.50
2825;DHT22;1420;51.324;12.344;2023-02-28T12:13:48;4.60;57.50
2825;DHT22;1420;51.324;12.344;2023-02-28T12:16:20;4.80;57.60
2825;DHT22;1420;51.324;12.344;2023-02-28T12:19:01;4.20;58.60
2825;DHT22;1420;51.324;12.344;2023-02-28T12:21:31;4.10;58.50
2825;DHT22;1420;51.324;12.344;2023-02-28T12:24:07;4.10;59.10
2825;DHT22;1420;51.324;12.344;2023-02-28T12:26:36;3.90;59.00
2825;DHT22;1420;51.324;12.344;2023-02-28T12:29:09;3.70;57.70
2825;DHT22;1420;51.324;12.344;2023-02-28T12:31:35;3.70;59.10
2825;DHT22;1420;51.324;12.344;2023-02-28T12:34:03;3.60;59.00
2825;DHT22;1420;51.324;12.344;2023-02-28T12:36:28;3.60;60.10
2825;DHT22;1420;51.324;12.344;2023-02-28T12:39:00;3.70;59.30
2825;DHT22;1420;51.324;12.344;2023-02-28T12:41:37;3.60;59.70
2825;DHT22;1420;51.324;12.344;2023-02-28T12:44:07;3.60;59.00
2825;DHT22;1420;51.324;12.344;2023-02-28T12:46:35;3.50;58.70
2825;DHT22;1420;51.324;12.344;2023-02-28T12:49:08;3.50;59.20
2825;DHT22;1420;51.324;12.344;2023-02-28T12:51:33;3.50;59.20
2825;DHT22;1420;51.324;12.344;2023-02-28T12:54:14;3.80;60.50
2825;DHT22;1420;51.324;12.344;2023-02-28T12:56:47;3.70;60.30
2825;DHT22;1420;51.324;12.344;2023-02-28T12:59:16;3.80;60.50
2825;DHT22;1420;51.324;12.344;2023-02-28T13:01:49;3.70;59.70
2825;DHT22;1420;51.324;12.344;2023-02-28T13:07:19;3.40;60.50
2825;DHT22;1420;51.324;12.344;2023-02-28T13:09:56;3.50;62.20
2825;DHT22;1420;51.324;12.344;2023-02-28T13:12:22;3.50;62.20
2825;DHT22;1420;51.324;12.344;2023-02-28T13:14:49;3.60;61.80
2825;DHT22;1420;51.324;12.344;2023-02-28T13:17:20;3.50;61.60
2825;DHT22;1420;51.324;12.344;2023-02-28T13:19:59;3.60;61.80
2825;DHT22;1420;51.324;12.344;2023-02-28T13:22:37;3.50;62.30
2825;DHT22;1420;51.324;12.344;2023-02-28T13:25:04;3.60;62.00
2825;DHT22;1420;51.324;12.344;2023-02-28T13:27:34;3.70;62.30
2825;DHT22;1420;51.324;12.344;2023-02-28T13:30:01;3.70;62.30
2825;DHT22;1420;51.324;12.344;2023-02-28T13:32:29;3.60;62.70
2825;DHT22;1420;51.324;12.344;2023-02-28T13:35:13;3.50;63.00
2825;DHT22;1420;51.324;12.344;2023-02-28T13:37:43;3.70;62.10
2825;DHT22;1420;51.324;12.344;2023-02-28T13:40:27;3.70;62.00
2825;DHT22;1420;51.324;12.344;2023-02-28T13:42:53;3.50;63.20
2825;DHT22;1420;51.324;12.344;2023-02-28T13:45:24;3.90;62.40
2825;DHT22;1420;51.324;12.344;2023-02-28T13:47:51;3.80;62.20
2825;DHT22;1420;51.324;12.344;2023-02-28T13:50:29;3.90;61.40
2825;DHT22;1420;51.324;12.344;2023-02-28T13:53:26;3.70;60.80
2825;DHT22;1420;51.324;12.344;2023-02-28T13:56:02;3.60;60.20
2825;DHT22;1420;51.324;12.344;2023-02-28T13:58:52;3.70;62.70
2825;DHT22;1420;51.324;12.344;2023-02-28T14:01:28;3.70;62.70
2825;DHT22;1420;51.324;12.344;2023-02-28T14:05:19;3.80;61.80
2825;DHT22;1420;51.324;12.344;2023-02-28T14:06:56;3.80;62.90
2825;DHT22;1420;51.324;12.344;2023-02-28T14:09:29;3.80;61.80
2825;DHT22;1420;51.324;12.344;2023-02-28T14:11:54;3.80;62.00
2825;DHT22;1420;51.324;12.344;2023-02-28T14:17:03;3.70;63.40
2825;DHT22;1420;51.324;12.344;2023-02-28T14:19:31;3.70;63.90
2825;DHT22;1420;51.324;12.344;2023-02-28T14:22:14;3.60;63.80
2825;DHT22;1420;51.324;12.344;2023-02-28T14:27:32;3.70;64.30
2825;DHT22;1420;51.324;12.344;2023-02-28T14:32:44;3.80;62.80
2825;DHT22;1420;51.324;12.344;2023-02-28T14:35:18;3.70;64.50
2825;DHT22;1420;51.324;12.344;2023-02-28T14:37:44;3.80;64.10
2825;DHT22;1420;51.324;12.344;2023-02-28T14:40:16;3.70;64.60
2825;DHT22;1420;51.324;12.344;2023-02-28T14:42:46;3.60;64.40
2825;DHT22;1420;51.324;12.344;2023-02-28T14:45:18;3.70;63.60
2825;DHT22;1420;51.324;12.344;2023-02-28T14:47:45;3.80;62.90
2825;DHT22;1420;51.324;12.344;2023-02-28T14:50:18;3.80;62.70
2825;DHT22;1420;51.324;12.344;2023-02-28T14:52:44;3.80;62.70
2825;DHT22;1420;51.324;12.344;2023-02-28T14:55:14;3.70;64.70
2825;DHT22;1420;51.324;12.344;2023-02-28T14:57:41;3.60;64.50
2825;DHT22;1420;51.324;12.344;2023-02-28T15:00:12;3.60;64.60
2825;DHT22;1420;51.324;12.344;2023-02-28T15:02:39;3.60;65.10
2825;DHT22;1420;51.324;12.344;2023-02-28T15:05:25;3.70;65.60
2825;DHT22;1420;51.324;12.344;2023-02-28T15:08:01;3.70;65.60
2825;DHT22;1420;51.324;12.344;2023-02-28T15:10:23;3.60;65.20
2825;DHT22;1420;51.324;12.344;2023-02-28T15:12:54;3.70;64.80
2825;DHT22;1420;51.324;12.344;2023-02-28T15:15:21;3.60;65.60
2825;DHT22;1420;51.324;12.344;2023-02-28T15:17:49;3.70;66.50
2825;DHT22;1420;51.324;12.344;2023-02-28T15:20:15;3.60;65.80
2825;DHT22;1420;51.324;12.344;2023-02-28T15:22:43;3.50;65.80
2825;DHT22;1420;51.324;12.344;2023-02-28T15:25:13;3.50;65.80
2825;DHT22;1420;51.324;12.344;2023-02-28T15:27:41;3.50;65.10
2825;DHT22;1420;51.324;12.344;2023-02-28T15:30:08;3.50;65.10
2825;DHT22;1420;51.324;12.344;2023-02-28T15:32:36;3.60;65.00
2825;DHT22;1420;51.324;12.344;2023-02-28T15:35:18;3.60;64.40
2825;DHT22;1420;51.324;12.344;2023-02-28T15:37:48;3.50;65.90
2825;DHT22;1420;51.324;12.344;2023-02-28T15:40:16;3.40;65.60
2825;DHT22;1420;51.324;12.344;2023-02-28T15:42:42;3.50;65.60
2825;DHT22;1420;51.324;12.344;2023-02-28T15:47:51;3.50;65.40
2825;DHT22;1420;51.324;12.344;2023-02-28T15:50:18;3.50;67.40
2825;DHT22;1420;51.324;12.344;2023-02-28T15:52:46;3.50;65.50
2825;DHT22;1420;51.324;12.344;2023-02-28T15:55:19;3.40;65.40
2825;DHT22;1420;51.324;12.344;2023-02-28T15:57:45;3.40;65.30
2825;DHT22;1420;51.324;12.344;2023-02-28T16:00:14;3.40;67.30
2825;DHT22;1420;51.324;12.344;2023-02-28T16:02:41;3.30;68.90
2825;DHT22;1420;51.324;12.344;2023-02-28T16:05:25;3.20;69.30
2825;DHT22;1420;51.324;12.344;2023-02-28T16:07:59;3.20;69.30
2825;DHT22;1420;51.324;12.344;2023-02-28T16:10:26;3.20;68.50
2825;DHT22;1420;51.324;12.344;2023-02-28T16:12:53;3.20;68.80
2825;DHT22;1420;51.324;12.344;2023-02-28T16:15:22;3.00;70.00
2825;DHT22;1420;51.324;12.344;2023-02-28T16:17:48;3.00;70.00
2825;DHT22;1420;51.324;12.344;2023-02-28T16:20:17;3.10;70.10
2825;DHT22;1420;51.324;12.344;2023-02-28T16:22:43;3.00;70.60
2825;DHT22;1420;51.324;12.344;2023-02-28T16:25:14;3.00;70.60
2825;DHT22;1420;51.324;12.344;2023-02-28T16:27:40;3.00;71.00
2825;DHT22;1420;51.324;12.344;2023-02-28T16:30:16;2.80;72.10
2825;DHT22;1420;51.324;12.344;2023-02-28T16:32:37;2.70;72.70
2825;DHT22;1420;51.324;12.344;2023-02-28T16:35:05;2.80;73.30
2825;DHT22;1420;51.324;12.344;2023-02-28T16:37:32;2.60;75.00
2825;DHT22;1420;51.324;12.344;2023-02-28T16:39:59;2.50;76.50
2825;DHT22;1420;51.324;12.344;2023-02-28T16:42:27;2.60;75.80
2825;DHT22;1420;51.324;12.344;2023-02-28T16:44:54;2.50;75.90
2825;DHT22;1420;51.324;12.344;2023-02-28T16:47:21;2.50;76.10
2825;DHT22;1420;51.324;12.344;2023-02-28T16:49:48;2.50;75.60
2825;DHT22;1420;51.324;12.344;2023-02-28T16:52:16;2.50;75.50
2825;DHT22;1420;51.324;12.344;2023-02-28T16:54:44;2.50;75.50
2825;DHT22;1420;51.324;12.344;2023-02-28T16:57:19;2.50;75.20
2825;DHT22;1420;51.324;12.344;2023-02-28T16:59:44;2.40;74.80